Portada
METAR-TAF:

METAR-TAF

Aeroports :

Txità, Rússia

latitud: 52-05N, longitud: 113-29E, altitud: 685 m

Observació

L'informe es va fer fa 17 minuts, a les 08:00 UTC
Vent 6 kt del Est/Nord-Est
Temperatura 12°C
Humitat 17%
Pressió 1026 hPa
Visibilitat 10 km o més

METAR: UIAA 090800Z 07003MPS 9999 NSC 12/M12 Q1026 R29/CLRD60 NOSIG RMK QFE710/0947

Hora: 17:17 (08:17 UTC)

Pronòstic

L'informe es va fer fa 3 hores i 17 minuts, a les 05:00 UTC
Pronòstic vàlid del 09 a les 06 UTC al 10 a les 06 UTC
Vent 6 kt del Sud-Est
Visibilitat 10 km o més
Temporalment
l' 09 a les 06 UTC al 10 a les 06 UTC
Vent 10 kt del Sud/Sud-Oest

TAF: UIAA 090500Z 0906/1006 14003MPS 9999 NSC TEMPO 0906/1006 20005MPS

Observacions i pronòstics meteorològics de més de 4000 aeroports (METAR i TAF).

Les estacions disponibles són els punts grocs i vermells al mapa.

Posi el ratolí al punt desitjat per veure el nom de l'estació.

Feu clic per veure les observacions i els pronòstics meteorològics.

Per canviar el mapa: feu clic els botons verds amb una creu de color negre per apropar; al botó verd amb un guió per allunyar la imatge; o en les fletxes verdes per a mapes adjacents.


METAR-TAF: